Terminal Aerodrome Forecast
Issued by NWS Mt. Holly, NJ

Current Version | Previous Version | Text Only | Print | Product List | Glossary On
Versions: 1 2 3 4 5 6 7 8 9 10 11 12 13 14 15 16 17
000
FTUS41 KPHI 301730
TAFRDG
TAF
KRDG 301730Z 3018/3118 29012G22KT P6SM BKN060
     FM302100 29016G26KT P6SM SCT060
     FM310000 29006KT P6SM FEW060
     FM311300 22005KT P6SM BKN100
      TEMPO 3116/3118 5SM -RA BR OVC050=

USA.gov is the U.S. government's official web portal to all federal, state and local government web resources and services.